createdAt,value
2018-08-11T00:00:40.606Z,32.3
2018-08-11T00:01:41.886Z,33.2
2018-08-11T00:02:43.335Z,33.7
2018-08-11T00:03:44.936Z,32.7
2018-08-11T00:04:46.384Z,32.7
2018-08-11T00:05:47.671Z,32.7
2018-08-11T00:06:49.000Z,32.7
2018-08-11T00:07:50.429Z,32.3
2018-08-11T00:08:52.065Z,33.2
2018-08-11T00:09:53.705Z,32.7
2018-08-11T00:10:55.316Z,33.2
2018-08-11T00:11:56.769Z,32.7
2018-08-11T00:12:58.041Z,32.7
2018-08-11T00:13:59.485Z,32.7
2018-08-11T00:15:01.098Z,32.3
2018-08-11T00:16:02.384Z,32.3
2018-08-11T00:17:03.839Z,32.3
2018-08-11T00:18:05.275Z,32.3
2018-08-11T00:19:06.885Z,32.3
2018-08-11T00:20:08.476Z,31.8
2018-08-11T00:21:09.896Z,32.3
2018-08-11T00:22:11.346Z,31.8
2018-08-11T00:23:12.957Z,31.8
2018-08-11T00:24:14.549Z,31.8
2018-08-11T00:25:16.141Z,32.3
2018-08-11T00:26:17.583Z,32.3
2018-08-11T00:27:19.167Z,31.8
2018-08-11T00:28:20.604Z,31.8
2018-08-11T00:29:22.199Z,32.7
2018-08-11T00:30:23.874Z,31.8
2018-08-11T00:31:25.500Z,31.8
2018-08-11T00:32:27.000Z,31.8
2018-08-11T00:33:28.441Z,31.8
2018-08-11T00:34:30.059Z,31.8
2018-08-11T00:35:31.654Z,31.8
2018-08-11T00:36:33.515Z,31.8
2018-08-11T00:37:35.108Z,32.3
2018-08-11T00:38:36.392Z,31.3
2018-08-11T00:39:37.989Z,31.8
2018-08-11T00:40:39.428Z,31.8
2018-08-11T00:41:41.028Z,31.8
2018-08-11T00:42:42.626Z,31.8
2018-08-11T00:43:44.064Z,31.3
2018-08-11T00:44:44.995Z,31.8
2018-08-11T00:45:46.602Z,31.8
2018-08-11T00:46:48.266Z,32.3
2018-08-11T00:47:49.877Z,31.8
2018-08-11T00:48:51.307Z,31.8
2018-08-11T00:49:52.909Z,32.3
2018-08-11T00:50:54.525Z,31.3
2018-08-11T00:51:55.807Z,31.3
2018-08-11T00:52:57.089Z,31.8
2018-08-11T00:53:58.543Z,31.8
2018-08-11T00:55:00.142Z,32.3
2018-08-11T00:56:01.586Z,31.3
2018-08-11T00:57:03.184Z,31.3
2018-08-11T00:58:04.792Z,31.8
2018-08-11T00:59:06.242Z,31.3
2018-08-11T01:00:07.849Z,31.8
2018-08-11T01:01:09.448Z,31.8
2018-08-11T01:02:10.895Z,32.3
2018-08-11T01:03:12.530Z,32.3
2018-08-11T01:04:14.139Z,31.8
2018-08-11T01:05:15.605Z,31.8
2018-08-11T01:06:17.074Z,31.8
2018-08-11T01:07:18.516Z,30.8
2018-08-11T01:08:20.129Z,28.8
2018-08-11T01:09:21.727Z,28.3
2018-08-11T01:10:23.167Z,27.9
2018-08-11T01:11:24.754Z,28.3
2018-08-11T01:12:26.358Z,28.3
2018-08-11T01:13:27.999Z,30.8
2018-08-11T01:14:29.445Z,31.3
2018-08-11T01:15:30.894Z,33.2
2018-08-11T01:16:32.505Z,34.7
2018-08-11T01:17:34.119Z,34.7
2018-08-11T01:18:35.717Z,35.2
2018-08-11T01:19:37.147Z,35.7
2018-08-11T01:20:38.751Z,36.7
2018-08-11T01:21:40.193Z,36.2
2018-08-11T01:22:41.625Z,37.1
2018-08-11T01:23:42.884Z,37.6
2018-08-11T01:24:44.328Z,38.1
2018-08-11T01:25:45.585Z,38.6
2018-08-11T01:26:47.063Z,39.1
2018-08-11T01:27:48.507Z,39.1
2018-08-11T01:28:50.169Z,38.6
2018-08-11T01:29:51.601Z,39.6
2018-08-11T01:30:53.199Z,40.1
2018-08-11T01:31:54.816Z,40.1
2018-08-11T01:32:56.089Z,40.1
2018-08-11T01:33:57.687Z,40.1
2018-08-11T01:34:58.795Z,40.1
2018-08-11T01:36:00.053Z,39.6
2018-08-11T01:37:01.517Z,41.1
2018-08-11T01:38:03.139Z,41.5
2018-08-11T01:39:04.571Z,40.6
2018-08-11T01:40:05.833Z,40.6
2018-08-11T01:41:07.426Z,40.6
2018-08-11T01:42:08.855Z,41.1
2018-08-11T01:43:10.295Z,41.1
2018-08-11T01:44:11.635Z,41.5
2018-08-11T01:45:13.151Z,41.5
2018-08-11T01:46:14.730Z,41.5
2018-08-11T01:47:16.320Z,41.1
2018-08-11T01:48:17.940Z,41.5
2018-08-11T01:49:19.392Z,41.1
2018-08-11T01:50:20.992Z,42.5
2018-08-11T01:51:22.425Z,41.5
2018-08-11T01:52:24.048Z,41.5
2018-08-11T01:53:25.669Z,41.5
2018-08-11T01:54:27.107Z,42
2018-08-11T01:55:28.528Z,41.5
2018-08-11T01:56:30.154Z,41.1
2018-08-11T01:57:31.603Z,41.1
2018-08-11T01:58:33.221Z,42
2018-08-11T01:59:34.716Z,41.5
2018-08-11T02:00:36.158Z,42
2018-08-11T02:01:37.474Z,41.5
2018-08-11T02:02:38.733Z,41.5
2018-08-11T02:03:40.336Z,40.6
2018-08-11T02:04:41.934Z,41.5
2018-08-11T02:05:43.237Z,41.1
2018-08-11T02:06:44.830Z,42
2018-08-11T02:07:46.413Z,41.1
2018-08-11T02:08:47.839Z,42
2018-08-11T02:09:49.446Z,41.1
2018-08-11T02:10:50.885Z,40.6
2018-08-11T02:11:52.320Z,41.5
2018-08-11T02:12:53.770Z,41.1
2018-08-11T02:13:55.384Z,41.1
2018-08-11T02:14:56.834Z,41.1
2018-08-11T02:15:58.445Z,40.6
2018-08-11T02:16:59.875Z,41.5
2018-08-11T02:18:01.489Z,41.5
2018-08-11T02:19:03.082Z,40.6
2018-08-11T02:20:04.740Z,40.1
2018-08-11T02:21:06.331Z,40.6
2018-08-11T02:22:07.918Z,41.1
2018-08-11T02:23:09.543Z,40.1
2018-08-11T02:24:11.132Z,41.1
2018-08-11T02:25:12.747Z,40.6
2018-08-11T02:26:14.348Z,40.6
2018-08-11T02:27:15.968Z,40.1
2018-08-11T02:28:17.573Z,40.1
2018-08-11T02:29:19.179Z,41.1
2018-08-11T02:30:20.304Z,40.6
2018-08-11T02:31:21.738Z,40.1
2018-08-11T02:32:23.174Z,40.6
2018-08-11T02:33:24.622Z,40.6
2018-08-11T02:34:26.620Z,40.1
2018-08-11T02:35:28.523Z,40.6
2018-08-11T02:36:30.141Z,39.6
2018-08-11T02:37:31.720Z,39.6
2018-08-11T02:38:33.142Z,40.1
2018-08-11T02:39:34.577Z,40.6
2018-08-11T02:40:36.027Z,40.1
2018-08-11T02:41:37.299Z,40.1
2018-08-11T02:42:38.921Z,39.6
2018-08-11T02:43:40.563Z,39.6
2018-08-11T02:44:41.997Z,40.1
2018-08-11T02:45:43.584Z,39.1
2018-08-11T02:46:45.010Z,39.6
2018-08-11T02:47:46.644Z,40.1
2018-08-11T02:48:48.242Z,39.6
2018-08-11T02:49:49.845Z,40.1
2018-08-11T02:50:51.277Z,39.6
2018-08-11T02:51:52.916Z,40.1
2018-08-11T02:52:54.361Z,40.1
2018-08-11T02:53:55.811Z,39.6
2018-08-11T02:54:57.076Z,40.1
2018-08-11T02:55:58.527Z,40.1
2018-08-11T02:57:00.135Z,39.6
2018-08-11T02:58:01.741Z,40.1
2018-08-11T02:59:03.031Z,39.6
2018-08-11T03:00:04.308Z,39.6
2018-08-11T03:01:05.946Z,39.1
2018-08-11T03:02:07.552Z,39.1
2018-08-11T03:03:09.016Z,39.1
2018-08-11T03:04:10.648Z,39.6
2018-08-11T03:05:12.278Z,39.1
2018-08-11T03:06:13.881Z,40.1
2018-08-11T03:07:15.326Z,39.6
2018-08-11T03:08:17.131Z,39.6
2018-08-11T03:09:18.726Z,39.6
2018-08-11T03:10:20.326Z,38.6
2018-08-11T03:11:21.944Z,39.1
2018-08-11T03:12:23.544Z,38.6
2018-08-11T03:13:24.994Z,39.6
2018-08-11T03:14:26.282Z,39.6
2018-08-11T03:15:27.900Z,39.1
2018-08-11T03:16:29.502Z,39.1
2018-08-11T03:17:30.940Z,39.1
2018-08-11T03:18:32.400Z,39.1
2018-08-11T03:19:34.028Z,38.1
2018-08-11T03:20:35.163Z,39.6
2018-08-11T03:21:36.830Z,39.6
2018-08-11T03:22:38.286Z,39.1
2018-08-11T03:23:39.721Z,39.1
2018-08-11T03:24:41.357Z,39.6
2018-08-11T03:25:42.993Z,39.6
2018-08-11T03:26:44.426Z,40.1
2018-08-11T03:27:46.038Z,40.1
2018-08-11T03:28:47.473Z,39.6
2018-08-11T03:29:49.075Z,39.6
2018-08-11T03:30:50.706Z,40.6
2018-08-11T03:31:51.810Z,39.6
2018-08-11T03:32:53.658Z,41.1
2018-08-11T03:33:55.256Z,41.1
2018-08-11T03:34:56.856Z,41.1
2018-08-11T03:35:58.465Z,40.6
2018-08-11T03:36:59.762Z,41.1
2018-08-11T03:38:01.373Z,41.5
2018-08-11T03:39:02.821Z,41.1
2018-08-11T03:40:04.276Z,41.5
2018-08-11T03:41:05.701Z,41.5
2018-08-11T03:42:07.125Z,41.1
2018-08-11T03:43:08.731Z,41.1
2018-08-11T03:44:10.323Z,41.5
2018-08-11T03:45:26.444Z,41.5
2018-08-11T03:46:27.895Z,41.1
2018-08-11T03:47:29.502Z,41.5
2018-08-11T03:48:31.110Z,42
2018-08-11T03:49:32.697Z,41.1
2018-08-11T03:50:34.135Z,42
2018-08-11T03:51:35.742Z,42
2018-08-11T03:52:37.662Z,41.5
2018-08-11T03:53:39.512Z,41.1
2018-08-11T03:54:40.945Z,41.1
2018-08-11T03:55:42.387Z,41.5
2018-08-11T03:56:43.982Z,41.5
2018-08-11T03:57:45.272Z,41.1
2018-08-11T03:58:46.886Z,41.5
2018-08-11T03:59:48.314Z,41.1
2018-08-11T04:00:49.918Z,41.5
2018-08-11T04:01:51.522Z,41.5
2018-08-11T04:02:52.936Z,41.1
2018-08-11T04:03:54.382Z,40.6
2018-08-11T04:04:55.976Z,41.1
2018-08-11T04:05:57.571Z,40.6
2018-08-11T04:06:58.689Z,41.1
2018-08-11T04:08:00.329Z,41.5
2018-08-11T04:09:01.954Z,41.1
2018-08-11T04:10:03.370Z,41.1
2018-08-11T04:11:04.645Z,41.1
2018-08-11T04:12:06.255Z,40.6
2018-08-11T04:13:07.693Z,41.1
2018-08-11T04:14:09.116Z,41.1
2018-08-11T04:15:10.710Z,40.6
2018-08-11T04:16:11.971Z,41.1
2018-08-11T04:17:13.415Z,41.1
2018-08-11T04:18:15.029Z,40.6
2018-08-11T04:19:16.463Z,41.1
2018-08-11T04:20:17.897Z,40.6
2018-08-11T04:21:19.510Z,40.1
2018-08-11T04:22:21.113Z,40.6
2018-08-11T04:23:22.705Z,40.1
2018-08-11T04:24:24.151Z,40.6
2018-08-11T04:25:25.602Z,40.6
2018-08-11T04:26:27.052Z,40.1
2018-08-11T04:27:28.482Z,40.6
2018-08-11T04:28:30.075Z,39.6
2018-08-11T04:29:31.674Z,41.1
2018-08-11T04:30:33.108Z,40.1
2018-08-11T04:31:34.705Z,40.6
2018-08-11T04:32:36.307Z,40.1
2018-08-11T04:33:37.743Z,40.1
2018-08-11T04:34:39.200Z,40.6
2018-08-11T04:35:41.031Z,40.6
2018-08-11T04:36:42.882Z,40.1
2018-08-11T04:37:44.326Z,39.6
2018-08-11T04:38:45.935Z,40.6
2018-08-11T04:39:47.537Z,40.6
2018-08-11T04:40:49.136Z,40.1
2018-08-11T04:41:50.725Z,40.6
2018-08-11T04:42:52.165Z,39.6
2018-08-11T04:43:53.601Z,39.6
2018-08-11T04:44:55.193Z,40.6
2018-08-11T04:45:56.313Z,40.6
2018-08-11T04:46:57.740Z,41.1
2018-08-11T04:47:59.176Z,40.6
2018-08-11T04:49:00.769Z,40.1
2018-08-11T04:50:02.050Z,40.1
2018-08-11T04:51:03.499Z,40.1
2018-08-11T04:52:04.958Z,40.6
2018-08-11T04:53:06.562Z,39.6
2018-08-11T04:54:08.006Z,39.6
2018-08-11T04:55:09.587Z,40.1
2018-08-11T04:56:11.179Z,39.6
2018-08-11T04:57:12.613Z,40.1
2018-08-11T04:58:14.066Z,39.6
2018-08-11T04:59:15.664Z,39.6
2018-08-11T05:00:17.261Z,39.1
2018-08-11T05:01:18.869Z,39.6
2018-08-11T05:02:20.468Z,39.1
2018-08-11T05:03:21.910Z,39.6
2018-08-11T05:04:23.174Z,40.1
2018-08-11T05:05:24.768Z,39.1
2018-08-11T05:06:26.189Z,40.1
2018-08-11T05:07:27.626Z,39.1
2018-08-11T05:08:29.045Z,40.1
2018-08-11T05:09:30.474Z,39.6
2018-08-11T05:10:32.082Z,39.1
2018-08-11T05:11:33.525Z,38.6
2018-08-11T05:12:35.142Z,39.6
2018-08-11T05:13:36.567Z,39.1
2018-08-11T05:14:37.996Z,39.1
2018-08-11T05:15:39.609Z,39.6
2018-08-11T05:16:41.223Z,39.6
2018-08-11T05:17:42.832Z,39.1
2018-08-11T05:18:44.432Z,39.6
2018-08-11T05:19:46.251Z,39.1
2018-08-11T05:20:47.977Z,39.1
2018-08-11T05:21:49.434Z,39.1
2018-08-11T05:22:51.038Z,39.1
2018-08-11T05:23:52.305Z,39.6
2018-08-11T05:24:53.748Z,39.1
2018-08-11T05:25:55.349Z,39.1
2018-08-11T05:26:56.790Z,39.1
2018-08-11T05:27:58.388Z,39.6
2018-08-11T05:29:00.004Z,39.1
2018-08-11T05:30:01.441Z,39.6
2018-08-11T05:31:03.051Z,40.1
2018-08-11T05:32:04.644Z,40.1
2018-08-11T05:33:06.455Z,40.1
2018-08-11T05:34:07.986Z,40.1
2018-08-11T05:35:09.617Z,40.6
2018-08-11T05:36:11.241Z,39.6
2018-08-11T05:37:12.868Z,40.1
2018-08-11T05:38:14.473Z,40.6
2018-08-11T05:39:15.606Z,41.1
2018-08-11T05:40:17.033Z,40.6
2018-08-11T05:41:18.467Z,41.1
2018-08-11T05:42:20.078Z,41.1
2018-08-11T05:43:21.676Z,41.1
2018-08-11T05:44:23.288Z,41.1
2018-08-11T05:45:24.911Z,41.5
2018-08-11T05:46:26.514Z,41.1
2018-08-11T05:47:28.119Z,41.5
2018-08-11T05:48:29.563Z,41.1
2018-08-11T05:49:31.169Z,41.5
2018-08-11T05:50:32.769Z,40.6
2018-08-11T05:51:34.059Z,41.1
2018-08-11T05:52:35.660Z,41.1
2018-08-11T05:53:37.117Z,41.5
2018-08-11T05:54:38.558Z,41.5
2018-08-11T05:55:39.985Z,41.5
2018-08-11T05:56:41.615Z,41.1
2018-08-11T05:57:43.216Z,41.5
2018-08-11T05:58:44.822Z,41.5
2018-08-11T05:59:46.412Z,41.5
2018-08-11T06:00:48.049Z,42
2018-08-11T06:01:49.657Z,42
2018-08-11T06:02:51.258Z,41.5
2018-08-11T06:03:52.973Z,41.5
2018-08-11T06:04:54.521Z,41.5
2018-08-11T06:05:55.961Z,41.5
2018-08-11T06:06:57.393Z,40.6
2018-08-11T06:07:58.832Z,42
2018-08-11T06:09:00.517Z,41.5
2018-08-11T06:10:02.074Z,42
2018-08-11T06:11:03.437Z,41.5
2018-08-11T06:12:05.067Z,41.1
2018-08-11T06:13:06.336Z,41.5
2018-08-11T06:14:07.771Z,41.1
2018-08-11T06:15:09.377Z,41.5
2018-08-11T06:16:10.997Z,41.5
2018-08-11T06:17:12.614Z,41.5
2018-08-11T06:18:14.229Z,41.5
2018-08-11T06:19:15.833Z,41.1
2018-08-11T06:20:17.430Z,41.1
2018-08-11T06:21:18.887Z,41.1
2018-08-11T06:22:20.495Z,40.6
2018-08-11T06:23:21.956Z,40.6
2018-08-11T06:24:23.569Z,41.1
2018-08-11T06:25:24.835Z,40.6
2018-08-11T06:26:26.270Z,41.1
2018-08-11T06:27:27.878Z,41.1
2018-08-11T06:28:29.327Z,41.1
2018-08-11T06:29:30.912Z,40.6
2018-08-11T06:30:32.366Z,40.6
2018-08-11T06:31:34.381Z,40.6
2018-08-11T06:32:36.466Z,40.1
2018-08-11T06:33:37.904Z,40.1
2018-08-11T06:34:39.510Z,41.5
2018-08-11T06:35:40.970Z,40.1
2018-08-11T06:36:42.572Z,40.6
2018-08-11T06:37:44.185Z,40.6
2018-08-11T06:38:45.805Z,40.1
2018-08-11T06:39:47.236Z,40.6
2018-08-11T06:40:49.519Z,40.1
2018-08-11T06:41:51.462Z,40.6
2018-08-11T06:42:53.074Z,40.6
2018-08-11T06:43:54.685Z,39.6
2018-08-11T06:44:56.331Z,40.1
2018-08-11T06:45:57.767Z,40.1
2018-08-11T06:46:59.285Z,39.6
2018-08-11T06:48:01.105Z,40.1
2018-08-11T06:49:02.708Z,39.6
2018-08-11T06:50:04.313Z,39.6
2018-08-11T06:51:05.923Z,40.6
2018-08-11T06:52:07.523Z,40.1
2018-08-11T06:53:09.112Z,40.6
2018-08-11T06:54:10.913Z,40.6
2018-08-11T06:55:12.514Z,39.6
2018-08-11T06:56:14.107Z,40.6
2018-08-11T06:57:15.392Z,39.6
2018-08-11T06:58:16.986Z,40.6
2018-08-11T06:59:18.587Z,40.1
2018-08-11T07:00:20.005Z,40.6
2018-08-11T07:01:21.620Z,40.6
2018-08-11T07:02:23.220Z,39.6
2018-08-11T07:03:24.661Z,39.6
2018-08-11T07:04:26.260Z,40.1
2018-08-11T07:05:27.860Z,40.1
2018-08-11T07:06:29.661Z,39.6
2018-08-11T07:07:31.274Z,39.1
2018-08-11T07:08:32.727Z,40.1
2018-08-11T07:09:34.172Z,40.1
2018-08-11T07:10:35.846Z,39.6
2018-08-11T07:11:37.463Z,39.6
2018-08-11T07:12:39.078Z,40.1
2018-08-11T07:13:40.508Z,40.1
2018-08-11T07:14:41.646Z,40.1
2018-08-11T07:15:43.081Z,39.6
2018-08-11T07:16:44.688Z,39.6
2018-08-11T07:17:45.957Z,40.1
2018-08-11T07:18:47.449Z,40.1
2018-08-11T07:19:49.047Z,40.6
2018-08-11T07:20:50.502Z,39.6
2018-08-11T07:21:52.111Z,40.1
2018-08-11T07:22:53.722Z,40.1
2018-08-11T07:23:55.354Z,40.6
2018-08-11T07:24:56.451Z,41.1
2018-08-11T07:25:58.092Z,40.6
2018-08-11T07:26:59.701Z,41.1
2018-08-11T07:28:01.125Z,40.6
2018-08-11T07:29:02.573Z,41.5
2018-08-11T07:30:04.113Z,42
2018-08-11T07:31:05.789Z,41.5
2018-08-11T07:32:07.226Z,42
2018-08-11T07:33:08.347Z,41.1
2018-08-11T07:34:09.784Z,42
2018-08-11T07:35:11.395Z,41.5
2018-08-11T07:36:13.404Z,41.5
2018-08-11T07:37:15.335Z,42
2018-08-11T07:38:16.735Z,41.1
2018-08-11T07:39:18.512Z,41.5
2018-08-11T07:40:20.264Z,42
2018-08-11T07:41:21.912Z,41.5
2018-08-11T07:42:23.514Z,41.5
2018-08-11T07:43:25.233Z,41.5
2018-08-11T07:44:27.165Z,42.5
2018-08-11T07:45:28.803Z,41.5
2018-08-11T07:46:30.244Z,42
2018-08-11T07:47:32.129Z,41.5
2018-08-11T07:48:34.107Z,42.5
2018-08-11T07:49:35.842Z,42
2018-08-11T07:50:37.457Z,42
2018-08-11T07:51:38.892Z,43
2018-08-11T07:52:40.644Z,41.1
2018-08-11T07:53:42.093Z,41.5
2018-08-11T07:54:43.645Z,42
2018-08-11T07:55:45.084Z,42
2018-08-11T07:56:46.696Z,42
2018-08-11T07:57:48.127Z,42
2018-08-11T07:58:49.735Z,41.5
2018-08-11T07:59:51.335Z,41.1
2018-08-11T08:00:52.952Z,41.5
2018-08-11T08:01:54.563Z,41.1
2018-08-11T08:02:56.171Z,41.5
2018-08-11T08:03:57.439Z,41.1
2018-08-11T08:04:58.882Z,41.1
2018-08-11T08:06:00.538Z,41.1
2018-08-11T08:07:01.978Z,40.6
2018-08-11T08:08:03.590Z,41.1
2018-08-11T08:09:05.488Z,40.6
2018-08-11T08:10:06.931Z,41.1
2018-08-11T08:11:08.381Z,40.6
2018-08-11T08:12:09.816Z,41.5
2018-08-11T08:13:11.116Z,41.1
2018-08-11T08:14:12.718Z,41.1
2018-08-11T08:15:14.332Z,41.1
2018-08-11T08:16:15.941Z,40.1
2018-08-11T08:17:17.549Z,41.1
2018-08-11T08:18:18.994Z,41.1
2018-08-11T08:19:20.839Z,40.6
2018-08-11T08:20:22.279Z,40.6
2018-08-11T08:21:23.901Z,40.6
2018-08-11T08:22:25.509Z,41.1
2018-08-11T08:23:26.948Z,40.1
2018-08-11T08:24:28.397Z,41.1
2018-08-11T08:25:29.839Z,40.1
2018-08-11T08:26:32.433Z,41.5
2018-08-11T08:27:35.080Z,40.1
2018-08-11T08:28:36.513Z,40.1
2018-08-11T08:29:38.122Z,40.6
2018-08-11T08:30:39.741Z,39.6
2018-08-11T08:31:41.355Z,40.1
2018-08-11T08:32:42.803Z,40.1
2018-08-11T08:33:44.572Z,40.6
2018-08-11T08:34:46.059Z,40.1
2018-08-11T08:35:47.651Z,40.1
2018-08-11T08:36:49.271Z,40.1
2018-08-11T08:37:50.890Z,39.6
2018-08-11T08:38:52.338Z,40.1
2018-08-11T08:39:54.003Z,40.1
2018-08-11T08:40:55.615Z,40.1
2018-08-11T08:41:57.720Z,40.6
2018-08-11T08:42:59.435Z,40.1
2018-08-11T08:44:01.041Z,40.1
2018-08-11T08:45:02.646Z,40.1
2018-08-11T08:46:04.263Z,40.6
2018-08-11T08:47:05.886Z,39.6
2018-08-11T08:48:07.533Z,39.6
2018-08-11T08:49:09.153Z,40.6
2018-08-11T08:50:10.776Z,40.1
2018-08-11T08:51:12.281Z,40.1
2018-08-11T08:52:14.014Z,39.6
2018-08-11T08:53:15.839Z,39.1
2018-08-11T08:54:17.769Z,40.1
2018-08-11T08:55:19.417Z,39.1
2018-08-11T08:56:20.890Z,40.1
2018-08-11T08:57:22.328Z,40.1
2018-08-11T08:58:23.751Z,39.6
2018-08-11T08:59:25.361Z,40.1
2018-08-11T09:00:26.836Z,39.6
2018-08-11T09:01:28.282Z,40.1
2018-08-11T09:02:29.732Z,39.6
2018-08-11T09:03:31.187Z,39.6
2018-08-11T09:04:32.789Z,39.1
2018-08-11T09:05:34.388Z,40.1
2018-08-11T09:06:35.981Z,40.1
2018-08-11T09:07:37.428Z,39.1
2018-08-11T09:08:39.050Z,40.6
2018-08-11T09:09:40.658Z,40.1
2018-08-11T09:10:42.104Z,40.1
2018-08-11T09:11:43.532Z,40.6
2018-08-11T09:12:45.159Z,40.6
2018-08-11T09:13:46.758Z,40.6
2018-08-11T09:14:48.382Z,40.6
2018-08-11T09:15:49.658Z,41.1
2018-08-11T09:16:51.107Z,41.1
2018-08-11T09:17:52.736Z,41.1
2018-08-11T09:18:54.165Z,41.5
2018-08-11T09:19:55.778Z,41.1
2018-08-11T09:20:57.386Z,41.1
2018-08-11T09:21:59.001Z,41.1
2018-08-11T09:23:00.487Z,42
2018-08-11T09:24:01.917Z,41.5
2018-08-11T09:25:03.515Z,41.5
2018-08-11T09:26:05.131Z,41.1
2018-08-11T09:27:06.743Z,41.5
2018-08-11T09:28:08.194Z,41.5
2018-08-11T09:29:09.821Z,41.5
2018-08-11T09:30:11.324Z,41.1
2018-08-11T09:31:12.939Z,41.5
2018-08-11T09:32:14.366Z,41.5
2018-08-11T09:33:15.806Z,42
2018-08-11T09:34:17.406Z,42
2018-08-11T09:35:18.671Z,42
2018-08-11T09:36:20.131Z,42.5
2018-08-11T09:37:21.734Z,41.5
2018-08-11T09:38:22.939Z,42
2018-08-11T09:39:24.723Z,41.5
2018-08-11T09:40:26.189Z,42
2018-08-11T09:41:27.786Z,41.5
2018-08-11T09:42:29.212Z,42
2018-08-11T09:43:30.821Z,42.5
2018-08-11T09:44:32.352Z,41.5
2018-08-11T09:45:33.551Z,41.5
2018-08-11T09:46:35.240Z,41.5
2018-08-11T09:47:36.848Z,41.5
2018-08-11T09:48:38.450Z,42
2018-08-11T09:49:40.069Z,41.5
2018-08-11T09:50:41.677Z,41.5
2018-08-11T09:51:43.292Z,41.1
2018-08-11T09:52:44.723Z,41.1
2018-08-11T09:53:46.331Z,41.5
2018-08-11T09:54:47.769Z,41.1
2018-08-11T09:55:49.042Z,41.1
2018-08-11T09:56:50.676Z,41.5
2018-08-11T09:57:52.275Z,41.1
2018-08-11T09:58:53.757Z,41.1
2018-08-11T09:59:55.208Z,40.6
2018-08-11T10:00:56.827Z,41.1
2018-08-11T10:01:58.297Z,41.1
2018-08-11T10:02:59.763Z,40.6
2018-08-11T10:04:01.055Z,40.6
2018-08-11T10:05:02.813Z,40.6
2018-08-11T10:06:04.397Z,41.1
2018-08-11T10:07:06.024Z,41.1
2018-08-11T10:08:07.465Z,41.1
2018-08-11T10:09:08.906Z,41.1
2018-08-11T10:10:10.337Z,40.6
2018-08-11T10:11:11.938Z,40.6
2018-08-11T10:12:13.384Z,40.6
2018-08-11T10:13:14.668Z,40.6
2018-08-11T10:14:16.264Z,41.1
2018-08-11T10:15:17.726Z,41.1
2018-08-11T10:16:19.193Z,40.1
2018-08-11T10:17:20.623Z,40.6
2018-08-11T10:18:22.329Z,40.1
2018-08-11T10:19:24.046Z,40.6
2018-08-11T10:20:25.488Z,41.1
2018-08-11T10:21:27.093Z,40.6
2018-08-11T10:22:28.521Z,40.1
2018-08-11T10:23:29.980Z,41.1
2018-08-11T10:24:31.589Z,39.6
2018-08-11T10:25:33.181Z,40.6
2018-08-11T10:26:34.619Z,40.1
2018-08-11T10:27:36.066Z,39.6
2018-08-11T10:28:37.694Z,40.6
2018-08-11T10:29:39.154Z,40.1
2018-08-11T10:30:40.599Z,39.6
2018-08-11T10:31:42.231Z,40.1
2018-08-11T10:32:43.839Z,39.6
2018-08-11T10:33:45.458Z,40.1
2018-08-11T10:34:46.726Z,40.6
2018-08-11T10:35:48.166Z,39.6
2018-08-11T10:36:49.592Z,39.6
2018-08-11T10:37:51.227Z,39.6
2018-08-11T10:38:52.838Z,40.1
2018-08-11T10:39:54.679Z,39.6
2018-08-11T10:40:56.382Z,39.6
2018-08-11T10:41:57.843Z,40.1
2018-08-11T10:42:59.123Z,39.6
2018-08-11T10:44:00.565Z,40.1
2018-08-11T10:45:02.196Z,40.1
2018-08-11T10:46:03.623Z,39.6
2018-08-11T10:47:05.280Z,39.6
2018-08-11T10:48:06.971Z,39.6
2018-08-11T10:49:08.592Z,40.1
2018-08-11T10:50:10.196Z,39.6
2018-08-11T10:51:11.646Z,40.1
2018-08-11T10:52:13.088Z,40.1
2018-08-11T10:53:14.687Z,40.1
2018-08-11T10:54:16.329Z,40.1
2018-08-11T10:55:17.773Z,40.6
2018-08-11T10:56:19.376Z,41.1
2018-08-11T10:57:20.981Z,40.6
2018-08-11T10:58:22.608Z,40.1
2018-08-11T10:59:24.054Z,40.6
2018-08-11T11:00:25.503Z,41.1
2018-08-11T11:01:27.407Z,41.1
2018-08-11T11:02:29.014Z,40.6
2018-08-11T11:03:30.469Z,41.5
2018-08-11T11:04:31.924Z,41.1
2018-08-11T11:05:33.345Z,41.5
2018-08-11T11:06:34.642Z,41.1
2018-08-11T11:07:36.275Z,42
2018-08-11T11:08:37.727Z,41.5
2018-08-11T11:09:39.337Z,42
2018-08-11T11:10:40.958Z,41.1
2018-08-11T11:11:42.568Z,42
2018-08-11T11:12:44.195Z,42.5
2018-08-11T11:13:45.802Z,41.1
2018-08-11T11:14:47.236Z,41.1
2018-08-11T11:15:48.689Z,41.5
2018-08-11T11:16:50.276Z,42
2018-08-11T11:17:51.869Z,41.5
2018-08-11T11:18:53.478Z,42
2018-08-11T11:19:54.915Z,42
2018-08-11T11:20:56.948Z,41.1
2018-08-11T11:21:58.821Z,42.5
2018-08-11T11:23:00.258Z,42
2018-08-11T11:24:01.536Z,41.5
2018-08-11T11:25:03.152Z,41.5
2018-08-11T11:26:04.435Z,41.5
2018-08-11T11:27:06.046Z,41.5
2018-08-11T11:28:07.694Z,42
2018-08-11T11:29:09.306Z,41.5
2018-08-11T11:30:10.914Z,41.5
2018-08-11T11:31:12.529Z,41.5
2018-08-11T11:32:13.995Z,41.5
2018-08-11T11:33:15.617Z,41.5
2018-08-11T11:34:16.895Z,41.5
2018-08-11T11:35:18.553Z,41.1
2018-08-11T11:36:19.786Z,41.1
2018-08-11T11:37:21.755Z,41.1
2018-08-11T11:38:23.724Z,40.6
2018-08-11T11:39:25.360Z,41.5
2018-08-11T11:40:26.988Z,41.1
2018-08-11T11:41:28.612Z,41.1
2018-08-11T11:42:30.087Z,41.5
2018-08-11T11:43:31.727Z,40.6
2018-08-11T11:44:33.345Z,41.1
2018-08-11T11:45:34.991Z,41.1
2018-08-11T11:46:36.457Z,41.1
2018-08-11T11:47:38.085Z,41.1
2018-08-11T11:48:39.685Z,40.1
2018-08-11T11:49:40.960Z,41.5
2018-08-11T11:50:42.397Z,41.1
2018-08-11T11:51:43.992Z,40.6
2018-08-11T11:52:45.591Z,40.1
2018-08-11T11:53:47.020Z,40.6
2018-08-11T11:54:48.481Z,40.6
2018-08-11T11:55:50.087Z,40.6
2018-08-11T11:56:51.543Z,40.1
2018-08-11T11:57:52.991Z,41.5
2018-08-11T11:58:54.606Z,41.1
2018-08-11T11:59:56.449Z,41.1
2018-08-11T12:00:58.300Z,40.1
2018-08-11T12:02:00.122Z,41.1
2018-08-11T12:03:01.877Z,40.6
2018-08-11T12:04:03.506Z,40.6
2018-08-11T12:05:05.118Z,40.6
2018-08-11T12:06:06.556Z,40.1
2018-08-11T12:07:07.987Z,40.6
2018-08-11T12:08:09.438Z,40.1
2018-08-11T12:09:10.886Z,40.6
2018-08-11T12:10:12.493Z,40.6
2018-08-11T12:11:13.990Z,40.1
2018-08-11T12:12:15.597Z,40.1
2018-08-11T12:13:17.032Z,41.1
2018-08-11T12:14:18.632Z,40.6
2018-08-11T12:15:20.240Z,40.1
2018-08-11T12:16:21.698Z,40.1
2018-08-11T12:17:23.306Z,40.6
2018-08-11T12:18:24.758Z,40.6
2018-08-11T12:19:26.724Z,40.6
2018-08-11T12:20:28.532Z,40.1
2018-08-11T12:21:29.645Z,39.6
2018-08-11T12:22:31.096Z,40.1
2018-08-11T12:23:32.531Z,39.6
2018-08-11T12:24:34.140Z,39.6
2018-08-11T12:25:35.576Z,39.6
2018-08-11T12:26:37.188Z,39.6
2018-08-11T12:27:38.786Z,40.6
2018-08-11T12:28:40.419Z,40.1
2018-08-11T12:29:42.017Z,40.1
2018-08-11T12:30:43.471Z,39.6
2018-08-11T12:31:45.094Z,39.6
2018-08-11T12:32:46.536Z,40.1
2018-08-11T12:33:47.980Z,39.6
2018-08-11T12:34:49.575Z,40.1
2018-08-11T12:35:51.007Z,40.1
2018-08-11T12:36:52.286Z,39.6
2018-08-11T12:37:54.164Z,40.1
2018-08-11T12:38:56.009Z,39.6
2018-08-11T12:39:57.275Z,39.6
2018-08-11T12:40:58.896Z,40.1
2018-08-11T12:42:00.504Z,40.6
2018-08-11T12:43:02.116Z,40.1
2018-08-11T12:44:03.712Z,40.1
2018-08-11T12:45:05.323Z,40.6
2018-08-11T12:46:06.421Z,41.1
2018-08-11T12:47:08.016Z,41.1
2018-08-11T12:48:09.316Z,40.1
2018-08-11T12:49:10.747Z,40.6
2018-08-11T12:50:12.347Z,41.1
2018-08-11T12:51:13.969Z,40.6
2018-08-11T12:52:15.402Z,41.1
2018-08-11T12:53:16.851Z,41.5
2018-08-11T12:54:18.505Z,41.5
2018-08-11T12:55:20.116Z,41.5
2018-08-11T12:56:21.558Z,41.5
2018-08-11T12:57:23.148Z,41.5
2018-08-11T12:58:24.985Z,41.5
2018-08-11T12:59:26.588Z,41.5
2018-08-11T13:00:28.186Z,41.5
2018-08-11T13:01:30.049Z,41.5
2018-08-11T13:02:31.894Z,42
2018-08-11T13:03:33.505Z,42
2018-08-11T13:04:34.944Z,41.5
2018-08-11T13:05:36.540Z,41.5
2018-08-11T13:06:37.982Z,41.5
2018-08-11T13:07:39.589Z,42
2018-08-11T13:08:41.025Z,41.1
2018-08-11T13:09:42.628Z,42
2018-08-11T13:10:44.238Z,42
2018-08-11T13:11:45.717Z,41.5
2018-08-11T13:12:47.353Z,41.5
2018-08-11T13:13:48.788Z,42
2018-08-11T13:14:50.253Z,41.5
2018-08-11T13:15:51.547Z,41.1
2018-08-11T13:16:53.210Z,41.5
2018-08-11T13:17:54.844Z,41.1
2018-08-11T13:18:56.463Z,41.5
2018-08-11T13:19:58.070Z,41.5
2018-08-11T13:20:59.687Z,42.5
2018-08-11T13:22:01.309Z,41.1
2018-08-11T13:23:02.795Z,41.5
2018-08-11T13:24:04.453Z,41.5
2018-08-11T13:25:06.087Z,41.5
2018-08-11T13:26:07.699Z,41.5
2018-08-11T13:27:09.151Z,41.5
2018-08-11T13:28:10.817Z,41.1
2018-08-11T13:29:12.287Z,41.5
2018-08-11T13:30:13.888Z,41.5
2018-08-11T13:31:15.518Z,40.6
2018-08-11T13:32:17.133Z,40.6
2018-08-11T13:33:18.739Z,41.1
2018-08-11T13:34:20.344Z,40.6
2018-08-11T13:35:21.822Z,41.1
2018-08-11T13:36:23.481Z,41.1
2018-08-11T13:37:24.937Z,41.1
2018-08-11T13:38:26.547Z,40.6
2018-08-11T13:39:28.231Z,40.6
2018-08-11T13:40:29.861Z,41.1
2018-08-11T13:41:31.332Z,41.1
2018-08-11T13:42:32.941Z,41.1